Accueil
METAR-TAF:

METAR-TAF

Aéroports :

Aéroport régional Les Éplatures

La Chaux-de-Fonds, Suisse

latitude: 47-05-03N, longitude: 006-47-37E, altitude: 1027 m

Observation

Le bulletin a été fait il y a 22 minutes, à 22:50 UTC
Vent 2 kt de direction variable
Température 9°C
Humidité 81%
Pression 1022 hPa
Visibilité 10 km ou plus
pas de nuages en-dessous de 1500 mètres et pas de cumulonimbus.

METAR: LSGC 122250Z AUTO VRB02KT CAVOK 09/06 Q1022

Heure: 00:12 (23:12 UTC)

Prévision

Le bulletin a été fait il y a 8 heures et 47 minutes, à 14:25 UTC
Prévision valable du 12 à 15 UTC au 12 à 24 UTC
Vent 8 kt de sud-ouest
Visibilité 10 km ou plus
Quelques nuages à une hauteur de 5000 ft

TAF: LSGC 121425Z 1215/1224 22008KT 9999 FEW050

Observations et prévisions météorologiques de plus de 4000 aéroports (messages METAR et TAF).

Les stations disponibles sont représentées par des disques jaunes et rouges sur la carte.

Passer la souris dessus pour voir le nom de la station.

Cliquer dessus pour voir les observations et prévisions météorologiques.

Pour changer de carte: cliquez sur les boutons verts avec une croix noire pour zoomer, sur le bouton vert avec un tiret pour effectuer un zoom arrière, ou sur les flèches vertes pour les cartes adjacentes.


METAR-TAF: